createdAt,value
2019-03-09T21:39:15.938Z,996.92
2019-03-09T21:41:25.591Z,996.90
2019-03-09T21:42:25.527Z,996.88
2019-03-09T21:43:25.487Z,996.94
2019-03-09T21:44:25.456Z,996.93
2019-03-09T21:45:25.395Z,996.91
2019-03-09T21:46:25.360Z,996.94
2019-03-09T21:47:25.331Z,996.96
2019-03-09T21:48:25.242Z,996.91
2019-03-09T21:49:25.191Z,996.87
2019-03-09T21:50:25.164Z,996.93
2019-03-09T21:51:25.099Z,996.91
2019-03-09T21:52:25.094Z,996.89
2019-03-09T21:53:24.967Z,996.91
2019-03-09T21:54:24.895Z,996.87
2019-03-09T21:55:24.983Z,996.85
2019-03-09T21:56:24.798Z,996.87
2019-03-09T21:57:24.698Z,996.84
2019-03-09T21:58:24.638Z,996.76
2019-03-09T21:59:24.697Z,996.82
2019-03-09T22:00:24.608Z,996.83
2019-03-09T22:01:24.445Z,996.78
2019-03-09T22:02:24.372Z,996.84
2019-03-09T22:03:24.306Z,996.80
2019-03-09T22:04:24.245Z,996.84
2019-03-09T22:05:24.185Z,996.82
2019-03-09T22:06:24.130Z,996.75
2019-03-09T22:07:24.120Z,996.82
2019-03-09T22:08:23.978Z,996.83
2019-03-09T22:09:23.954Z,996.81
2019-03-09T22:10:23.858Z,996.88
2019-03-09T22:11:23.787Z,996.86
2019-03-09T22:12:23.735Z,996.86
2019-03-09T22:13:23.660Z,996.90
2019-03-09T22:14:23.589Z,996.89
2019-03-09T22:15:23.530Z,996.88
2019-03-09T22:16:23.483Z,996.93
2019-03-09T22:17:23.408Z,996.95
2019-03-09T22:18:23.340Z,996.92
2019-03-09T22:19:23.278Z,996.96
2019-03-09T22:20:23.213Z,996.93
2019-03-09T22:21:23.167Z,996.94
2019-03-09T22:22:23.099Z,996.96
2019-03-09T22:23:23.107Z,996.96
2019-03-09T22:24:23.079Z,996.96
2019-03-09T22:25:22.946Z,996.88
2019-03-09T22:26:22.895Z,996.92
2019-03-09T22:27:22.938Z,996.94
2019-03-09T22:28:22.664Z,996.97
2019-03-09T22:29:22.617Z,996.96
2019-03-09T22:30:22.514Z,996.93
2019-03-09T22:31:29.456Z,996.92
2019-03-09T22:32:22.375Z,996.93
2019-03-09T22:33:22.278Z,996.96
2019-03-09T22:34:22.207Z,996.96
2019-03-09T22:35:22.133Z,996.97
2019-03-09T22:36:22.060Z,996.92
2019-03-09T22:37:22.001Z,996.96
2019-03-09T22:38:21.912Z,996.99
2019-03-09T22:39:21.840Z,996.86
2019-03-09T22:40:21.773Z,996.91
2019-03-09T22:41:21.696Z,996.84
2019-03-09T22:42:21.639Z,996.87
2019-03-09T22:43:21.548Z,996.87
2019-03-09T22:44:21.469Z,996.95
2019-03-09T22:45:21.393Z,996.96
2019-03-09T22:46:21.323Z,996.90
2019-03-09T22:47:21.247Z,996.92
2019-03-09T22:48:21.179Z,996.79
2019-03-09T22:49:21.101Z,996.91
2019-03-09T22:50:21.028Z,996.84
2019-03-09T22:51:20.952Z,996.85
2019-03-09T22:52:20.894Z,996.91
2019-03-09T22:53:20.817Z,996.88
2019-03-09T22:54:20.744Z,996.95
2019-03-09T22:55:20.657Z,996.92
2019-03-09T22:56:20.579Z,996.92
2019-03-09T22:57:20.510Z,996.84
2019-03-09T22:58:20.434Z,996.80
2019-03-09T22:59:20.378Z,996.80
2019-03-09T23:00:20.301Z,996.79
2019-03-09T23:01:20.227Z,996.87
2019-03-09T23:02:20.163Z,996.84
2019-03-09T23:03:20.069Z,996.83
2019-03-09T23:04:20.015Z,996.80
2019-03-09T23:05:19.918Z,996.76
2019-03-09T23:06:19.841Z,996.78
2019-03-09T23:07:19.767Z,996.80
2019-03-09T23:08:19.687Z,996.83
2019-03-09T23:09:19.627Z,996.82
2019-03-09T23:10:19.539Z,996.77
2019-03-09T23:11:19.466Z,996.80
2019-03-09T23:12:19.389Z,996.81
2019-03-09T23:13:19.312Z,996.83
2019-03-09T23:14:19.251Z,996.81
2019-03-09T23:15:19.158Z,996.85
2019-03-09T23:16:19.085Z,996.85
2019-03-09T23:17:19.010Z,996.83
2019-03-09T23:18:18.930Z,996.75
2019-03-09T23:19:18.873Z,996.74
2019-03-09T23:20:18.794Z,996.74
2019-03-09T23:21:18.716Z,996.69
2019-03-09T23:22:18.646Z,996.75
2019-03-09T23:23:18.573Z,996.71
2019-03-09T23:24:18.516Z,996.68
2019-03-09T23:25:18.424Z,996.67
2019-03-09T23:26:18.354Z,996.58
2019-03-09T23:27:18.278Z,996.53
2019-03-09T23:28:18.207Z,996.45
2019-03-09T23:29:18.133Z,996.51
2019-03-09T23:30:18.074Z,996.49
2019-03-09T23:31:17.982Z,996.54
2019-03-09T23:32:17.967Z,996.45
2019-03-09T23:33:17.830Z,996.45
2019-03-09T23:34:17.768Z,996.38
2019-03-09T23:35:17.705Z,996.51
2019-03-09T23:36:17.610Z,996.46
2019-03-09T23:37:17.555Z,996.46
2019-03-09T23:38:17.476Z,996.48
2019-03-09T23:39:17.392Z,996.47
2019-03-09T23:40:17.324Z,996.51
2019-03-09T23:41:17.254Z,996.51
2019-03-09T23:42:17.200Z,996.54
2019-03-09T23:43:17.106Z,996.59
2019-03-09T23:44:17.035Z,996.60
2019-03-09T23:45:16.949Z,996.59
2019-03-09T23:46:16.879Z,996.50
2019-03-09T23:47:16.818Z,996.56
2019-03-09T23:48:16.731Z,996.49
2019-03-09T23:49:16.661Z,996.46
2019-03-09T23:50:16.585Z,996.52
2019-03-09T23:51:16.504Z,996.52
2019-03-09T23:52:16.449Z,996.49
2019-03-09T23:53:16.367Z,996.45
2019-03-09T23:54:16.291Z,996.49
2019-03-09T23:55:21.933Z,996.41
2019-03-09T23:56:17.144Z,996.50
2019-03-09T23:57:16.084Z,996.50
2019-03-09T23:58:16.011Z,996.49
2019-03-09T23:59:15.924Z,996.45
